createdAt,value
2022-08-26T00:00:04.014Z,52.22
2022-08-26T00:02:35.286Z,52.10
2022-08-26T00:05:07.063Z,52.44
2022-08-26T00:07:38.940Z,52.12
2022-08-26T00:10:12.125Z,52.36
2022-08-26T00:12:43.221Z,52.63
2022-08-26T00:15:16.529Z,52.41
2022-08-26T00:17:48.402Z,52.74
2022-08-26T00:20:22.797Z,52.64
2022-08-26T00:22:53.524Z,52.19
2022-08-26T00:25:24.943Z,52.50
2022-08-26T00:27:55.726Z,52.35
2022-08-26T00:30:30.044Z,52.24
2022-08-26T00:33:02.217Z,52.48
2022-08-26T00:35:34.344Z,52.35
2022-08-26T00:38:06.921Z,52.26
2022-08-26T00:40:45.552Z,52.12
2022-08-26T00:43:17.269Z,52.51
2022-08-26T00:45:55.536Z,52.43
2022-08-26T00:48:31.696Z,52.14
2022-08-26T00:51:07.814Z,52.40
2022-08-26T00:53:45.695Z,52.41
2022-08-26T00:56:23.727Z,52.38
2022-08-26T00:58:55.590Z,52.39
2022-08-26T01:01:28.427Z,52.23
2022-08-26T01:04:02.960Z,52.22
2022-08-26T01:06:34.408Z,52.50
2022-08-26T01:09:05.655Z,52.37
2022-08-26T01:11:37.323Z,52.45
2022-08-26T01:14:09.732Z,52.61
2022-08-26T01:16:40.765Z,52.47
2022-08-26T01:19:25.014Z,52.73
2022-08-26T01:22:00.389Z,52.65
2022-08-26T01:24:32.724Z,52.67
2022-08-26T01:27:08.193Z,52.51
2022-08-26T01:29:42.741Z,52.56
2022-08-26T01:32:16.383Z,52.66
2022-08-26T01:34:49.579Z,52.47
2022-08-26T01:37:24.672Z,52.47
2022-08-26T01:39:57.618Z,52.40
2022-08-26T01:42:29.422Z,52.32
2022-08-26T01:45:04.822Z,52.31
2022-08-26T01:47:37.888Z,52.38
2022-08-26T01:50:15.850Z,52.29
2022-08-26T01:53:00.722Z,52.21
2022-08-26T01:55:33.362Z,51.77
2022-08-26T01:58:05.798Z,52.23
2022-08-26T02:00:37.461Z,52.43
2022-08-26T02:03:21.470Z,51.79
2022-08-26T02:05:56.656Z,52.18
2022-08-26T02:08:32.165Z,52.02
2022-08-26T02:11:04.063Z,52.20
2022-08-26T02:13:39.558Z,52.04
2022-08-26T02:16:11.905Z,51.96
2022-08-26T02:18:44.891Z,51.98
2022-08-26T02:21:19.192Z,52.15
2022-08-26T02:23:49.970Z,52.10
2022-08-26T02:26:23.770Z,51.96
2022-08-26T02:29:00.934Z,52.27
2022-08-26T02:31:32.183Z,52.14
2022-08-26T02:34:12.414Z,51.46
2022-08-26T02:36:44.199Z,51.26
2022-08-26T02:39:21.954Z,51.02
2022-08-26T02:41:53.562Z,50.84
2022-08-26T02:44:24.648Z,50.62
2022-08-26T02:46:56.968Z,50.28
2022-08-26T02:49:28.893Z,50.26
2022-08-26T02:52:02.037Z,50.27
2022-08-26T02:54:33.171Z,50.30
2022-08-26T02:57:05.398Z,49.94
2022-08-26T02:59:39.435Z,50.20
2022-08-26T03:02:11.402Z,50.04
2022-08-26T03:04:57.335Z,49.75
2022-08-26T03:07:31.919Z,49.92
2022-08-26T03:10:08.534Z,49.72
2022-08-26T03:12:40.583Z,49.66
2022-08-26T03:15:15.871Z,49.68
2022-08-26T03:17:50.337Z,49.58
2022-08-26T03:20:21.413Z,49.75
2022-08-26T03:22:53.484Z,49.55
2022-08-26T03:25:27.936Z,49.49
2022-08-26T03:27:59.411Z,49.50
2022-08-26T03:30:45.285Z,49.63
2022-08-26T03:33:17.227Z,49.50
2022-08-26T03:35:50.553Z,49.95
2022-08-26T03:38:20.424Z,49.92
2022-08-26T03:40:52.381Z,50.10
2022-08-26T03:43:26.908Z,50.06
2022-08-26T03:45:57.583Z,50.37
2022-08-26T03:48:28.362Z,50.13
2022-08-26T03:51:01.509Z,50.04
2022-08-26T03:53:34.030Z,49.89
2022-08-26T03:56:07.883Z,49.74
2022-08-26T03:58:39.180Z,49.75
2022-08-26T04:01:16.188Z,49.69
2022-08-26T04:04:01.505Z,49.61
2022-08-26T04:06:36.040Z,49.63
2022-08-26T04:09:10.074Z,49.87
2022-08-26T04:11:43.687Z,49.83
2022-08-26T04:14:20.242Z,49.61
2022-08-26T04:16:51.465Z,49.51
2022-08-26T04:19:24.266Z,49.40
2022-08-26T04:21:55.901Z,49.29
2022-08-26T04:24:29.012Z,49.32
2022-08-26T04:27:02.168Z,49.25
2022-08-26T04:29:33.224Z,49.21
2022-08-26T04:32:06.412Z,48.83
2022-08-26T04:34:39.161Z,48.93
2022-08-26T04:37:10.770Z,48.64
2022-08-26T04:39:41.554Z,48.87
2022-08-26T04:42:13.514Z,48.79
2022-08-26T04:44:44.365Z,48.61
2022-08-26T04:47:15.118Z,48.64
2022-08-26T04:49:45.785Z,48.52
2022-08-26T04:52:16.527Z,48.42
2022-08-26T04:54:47.341Z,48.48
2022-08-26T04:57:19.178Z,48.27
2022-08-26T04:59:49.944Z,48.34
2022-08-26T05:02:20.729Z,48.18
2022-08-26T05:04:52.449Z,48.22
2022-08-26T05:07:23.144Z,48.04
2022-08-26T05:09:54.250Z,48.10
2022-08-26T05:12:25.349Z,48.06
2022-08-26T05:14:56.557Z,47.99
2022-08-26T05:17:28.765Z,47.75
2022-08-26T05:19:59.600Z,48.04
2022-08-26T05:22:30.347Z,47.93
2022-08-26T05:25:01.209Z,47.97
2022-08-26T05:27:32.485Z,47.81
2022-08-26T05:30:04.120Z,47.70
2022-08-26T05:32:35.059Z,47.77
2022-08-26T05:35:08.826Z,47.67
2022-08-26T05:37:41.146Z,47.72
2022-08-26T05:40:13.690Z,47.78
2022-08-26T05:42:44.428Z,47.69
2022-08-26T05:45:15.838Z,47.67
2022-08-26T05:47:48.098Z,47.66
2022-08-26T05:50:23.198Z,47.75
2022-08-26T05:52:55.644Z,47.70
2022-08-26T05:55:26.348Z,47.64
2022-08-26T05:57:57.019Z,47.48
2022-08-26T06:00:28.814Z,47.60
2022-08-26T06:02:59.748Z,47.54
2022-08-26T06:05:33.285Z,47.71
2022-08-26T06:08:14.220Z,47.75
2022-08-26T06:10:50.976Z,47.83
2022-08-26T06:13:25.679Z,47.80
2022-08-26T06:15:58.108Z,47.77
2022-08-26T06:18:32.823Z,47.89
2022-08-26T06:21:13.125Z,47.95
2022-08-26T06:24:02.811Z,47.94
2022-08-26T06:26:35.440Z,47.86
2022-08-26T06:29:09.202Z,47.88
2022-08-26T06:31:40.217Z,47.92
2022-08-26T06:34:11.673Z,47.90
2022-08-26T06:36:44.806Z,47.84
2022-08-26T06:39:18.806Z,48.04
2022-08-26T06:41:52.148Z,47.95
2022-08-26T06:44:23.365Z,47.86
2022-08-26T06:46:54.281Z,48.17
2022-08-26T06:49:27.519Z,48.02
2022-08-26T06:51:59.305Z,47.93
2022-08-26T06:54:31.880Z,47.90
2022-08-26T06:57:03.154Z,47.90
2022-08-26T06:59:34.993Z,48.13
2022-08-26T07:02:06.609Z,48.30
2022-08-26T07:04:39.059Z,48.07
2022-08-26T07:07:10.138Z,48.15
2022-08-26T07:09:40.900Z,47.94
2022-08-26T07:12:12.224Z,48.03
2022-08-26T07:14:47.522Z,47.98
2022-08-26T07:17:19.573Z,48.00
2022-08-26T07:19:51.672Z,48.02
2022-08-26T07:22:23.629Z,47.88
2022-08-26T07:24:55.065Z,47.99
2022-08-26T07:27:26.628Z,47.95
2022-08-26T07:30:00.350Z,48.07
2022-08-26T07:32:33.318Z,48.18
2022-08-26T07:35:04.524Z,47.89
2022-08-26T07:37:39.187Z,48.15
2022-08-26T07:40:11.916Z,47.91
2022-08-26T07:42:42.664Z,48.03
2022-08-26T07:45:13.632Z,47.92
2022-08-26T07:47:44.997Z,48.00
2022-08-26T07:50:16.436Z,48.18
2022-08-26T07:52:47.556Z,47.89
2022-08-26T07:55:19.018Z,47.88
2022-08-26T07:57:50.660Z,47.86
2022-08-26T08:00:21.773Z,48.01
2022-08-26T08:02:52.502Z,47.93
2022-08-26T08:05:33.575Z,47.77
2022-08-26T08:08:26.213Z,47.92
2022-08-26T08:10:59.005Z,47.92
2022-08-26T08:13:30.886Z,47.82
2022-08-26T08:16:02.605Z,47.92
2022-08-26T08:18:33.593Z,47.67
2022-08-26T08:21:21.426Z,47.93
2022-08-26T08:23:56.280Z,47.99
2022-08-26T08:26:27.653Z,47.99
2022-08-26T08:28:59.118Z,48.12
2022-08-26T08:31:56.611Z,48.02
2022-08-26T08:34:22.945Z,47.99
2022-08-26T08:36:54.447Z,47.92
2022-08-26T08:39:25.649Z,47.85
2022-08-26T08:42:20.548Z,47.87
2022-08-26T08:44:58.434Z,47.87
2022-08-26T08:47:37.209Z,47.83
2022-08-26T08:50:17.181Z,47.76
2022-08-26T08:52:53.322Z,47.99
2022-08-26T08:55:27.216Z,47.79
2022-08-26T08:58:08.044Z,47.99
2022-08-26T09:00:46.442Z,47.81
2022-08-26T09:03:31.775Z,47.75
2022-08-26T09:06:04.623Z,47.96
2022-08-26T09:08:37.529Z,47.93
2022-08-26T09:11:08.714Z,47.83
2022-08-26T09:13:44.720Z,47.66
2022-08-26T09:16:20.483Z,47.83
2022-08-26T09:19:05.493Z,47.78
2022-08-26T09:21:36.479Z,47.79
2022-08-26T09:24:08.765Z,47.80
2022-08-26T09:26:49.830Z,47.87
2022-08-26T09:29:27.164Z,47.86
2022-08-26T09:32:20.673Z,47.81
2022-08-26T09:35:01.038Z,47.69
2022-08-26T09:40:29.251Z,47.74
2022-08-26T09:43:13.506Z,47.76
2022-08-26T09:45:50.680Z,47.87
2022-08-26T09:48:35.488Z,47.78
2022-08-26T09:51:28.220Z,47.80
2022-08-26T09:54:01.081Z,47.68
2022-08-26T09:56:35.577Z,47.72
2022-08-26T09:59:10.992Z,47.84
2022-08-26T10:01:44.787Z,47.67
2022-08-26T10:04:22.348Z,47.69
2022-08-26T10:07:01.673Z,47.74
2022-08-26T10:09:35.022Z,47.64
2022-08-26T10:12:07.837Z,47.57
2022-08-26T10:17:30.893Z,47.58
2022-08-26T10:20:13.642Z,47.63
2022-08-26T10:23:00.093Z,47.63
2022-08-26T10:25:33.677Z,47.65
2022-08-26T10:28:11.919Z,47.61
2022-08-26T10:30:52.139Z,47.62
2022-08-26T10:33:23.512Z,47.51
2022-08-26T10:35:57.025Z,47.65
2022-08-26T10:38:34.796Z,47.61
2022-08-26T10:41:13.096Z,47.49
2022-08-26T10:43:50.641Z,47.55
2022-08-26T10:46:27.104Z,47.37
2022-08-26T10:49:06.467Z,47.53
2022-08-26T10:51:42.394Z,47.44
2022-08-26T10:54:22.678Z,47.27
2022-08-26T10:57:01.329Z,47.31
2022-08-26T10:59:46.027Z,47.22
2022-08-26T11:02:24.785Z,47.42
2022-08-26T11:05:00.035Z,47.43
2022-08-26T11:07:46.165Z,47.36
2022-08-26T11:10:28.704Z,47.44
2022-08-26T11:13:03.652Z,47.38
2022-08-26T11:16:01.301Z,47.61
2022-08-26T11:18:48.679Z,47.34
2022-08-26T11:22:07.699Z,47.35
2022-08-26T11:25:01.621Z,47.33
2022-08-26T11:28:05.752Z,47.33
2022-08-26T11:30:58.154Z,47.34
2022-08-26T11:33:59.547Z,47.35
2022-08-26T11:36:53.450Z,47.32
2022-08-26T11:39:29.754Z,47.26
2022-08-26T11:42:03.770Z,47.42
2022-08-26T11:44:49.262Z,47.25
2022-08-26T11:47:29.572Z,47.24
2022-08-26T11:50:16.903Z,47.34
2022-08-26T11:52:56.141Z,47.24
2022-08-26T11:55:27.054Z,47.30
2022-08-26T11:58:00.987Z,47.18
2022-08-26T12:00:35.043Z,47.10
2022-08-26T12:03:09.690Z,47.06
2022-08-26T12:05:44.530Z,47.19
2022-08-26T12:08:19.331Z,47.22
2022-08-26T12:10:50.437Z,47.03
2022-08-26T12:13:26.470Z,46.91
2022-08-26T12:15:59.313Z,47.23
2022-08-26T12:18:33.718Z,47.06
2022-08-26T12:21:14.353Z,46.97
2022-08-26T12:23:47.575Z,47.00
2022-08-26T12:26:27.723Z,46.95
2022-08-26T12:29:00.953Z,46.77
2022-08-26T12:31:36.041Z,46.88
2022-08-26T12:34:13.094Z,46.85
2022-08-26T12:36:53.544Z,46.94
2022-08-26T12:39:30.465Z,46.74
2022-08-26T12:42:03.098Z,46.91
2022-08-26T12:44:42.498Z,46.97
2022-08-26T12:47:35.224Z,46.84
2022-08-26T12:50:19.260Z,46.71
2022-08-26T12:53:00.635Z,46.89
2022-08-26T12:55:42.641Z,46.67
2022-08-26T12:58:22.470Z,46.80
2022-08-26T13:00:55.141Z,46.84
2022-08-26T13:03:43.344Z,46.74
2022-08-26T13:06:28.042Z,46.64
2022-08-26T13:09:00.999Z,46.58
2022-08-26T13:11:34.372Z,46.52
2022-08-26T13:14:07.174Z,46.55
2022-08-26T13:16:39.543Z,46.61
2022-08-26T13:19:13.075Z,46.47
2022-08-26T13:21:48.075Z,46.43
2022-08-26T13:24:22.057Z,46.52
2022-08-26T13:26:53.183Z,46.43
2022-08-26T13:29:24.125Z,46.54
2022-08-26T13:31:56.440Z,46.63
2022-08-26T13:34:28.105Z,46.44
2022-08-26T13:36:59.573Z,46.36
2022-08-26T13:39:30.603Z,46.53
2022-08-26T13:42:01.505Z,46.49
2022-08-26T13:44:32.629Z,46.46
2022-08-26T13:47:03.492Z,46.58
2022-08-26T13:49:34.379Z,46.34
2022-08-26T13:52:06.039Z,46.49
2022-08-26T13:54:37.077Z,46.41
2022-08-26T13:57:08.376Z,46.52
2022-08-26T13:59:39.271Z,46.47
2022-08-26T14:02:11.449Z,46.43
2022-08-26T14:04:42.385Z,46.28
2022-08-26T14:07:13.152Z,46.03
2022-08-26T14:09:43.914Z,46.49
2022-08-26T14:12:14.738Z,46.41
2022-08-26T14:14:45.543Z,46.40
2022-08-26T14:17:21.646Z,46.28
2022-08-26T14:19:53.773Z,46.12
2022-08-26T14:22:25.225Z,46.36
2022-08-26T14:24:56.788Z,46.27
2022-08-26T14:27:27.769Z,46.11
2022-08-26T14:29:59.604Z,46.02
2022-08-26T14:32:31.405Z,46.31
2022-08-26T14:35:02.649Z,46.23
2022-08-26T14:37:33.542Z,46.28
2022-08-26T14:40:06.248Z,46.20
2022-08-26T14:42:37.936Z,46.10
2022-08-26T14:45:13.459Z,45.92
2022-08-26T14:47:44.399Z,46.20
2022-08-26T14:50:19.312Z,46.03
2022-08-26T14:53:07.659Z,45.97
2022-08-26T14:55:42.305Z,46.04
2022-08-26T14:58:13.514Z,46.02
2022-08-26T15:00:44.603Z,46.16
2022-08-26T15:05:51.578Z,45.97
2022-08-26T15:08:22.629Z,46.11
2022-08-26T15:10:53.767Z,46.18
2022-08-26T15:13:24.755Z,45.88
2022-08-26T15:15:55.689Z,45.88
2022-08-26T15:18:26.714Z,45.94
2022-08-26T15:20:57.675Z,46.08
2022-08-26T15:23:28.690Z,45.84
2022-08-26T15:25:59.852Z,46.02
2022-08-26T15:28:30.983Z,46.05
2022-08-26T15:31:02.079Z,46.11
2022-08-26T15:33:33.262Z,45.98
2022-08-26T15:36:05.903Z,46.03
2022-08-26T15:38:41.380Z,46.14
2022-08-26T15:41:14.443Z,46.03
2022-08-26T15:43:45.848Z,45.63
2022-08-26T15:46:17.139Z,45.89
2022-08-26T15:48:48.378Z,45.87
2022-08-26T15:51:24.693Z,45.95
2022-08-26T15:53:56.730Z,45.95
2022-08-26T15:56:29.785Z,46.11
2022-08-26T15:59:01.450Z,46.20
2022-08-26T16:01:33.047Z,45.91
2022-08-26T16:04:04.453Z,46.17
2022-08-26T16:06:38.921Z,46.07
2022-08-26T16:09:10.626Z,45.81
2022-08-26T16:11:41.837Z,45.81
2022-08-26T16:14:12.714Z,46.01
2022-08-26T16:16:43.864Z,46.07
2022-08-26T16:19:15.623Z,45.88
2022-08-26T16:21:46.883Z,45.95
2022-08-26T16:24:18.123Z,46.14
2022-08-26T16:26:49.625Z,46.01
2022-08-26T16:29:20.888Z,45.91
2022-08-26T16:31:53.385Z,46.15
2022-08-26T16:34:24.445Z,46.03
2022-08-26T16:36:55.453Z,46.08
2022-08-26T16:39:26.338Z,46.30
2022-08-26T16:41:57.146Z,46.09
2022-08-26T16:44:28.102Z,46.17
2022-08-26T16:47:01.934Z,46.21
2022-08-26T16:49:32.871Z,46.11
2022-08-26T16:52:04.489Z,45.95
2022-08-26T16:54:35.579Z,46.11
2022-08-26T16:57:07.440Z,46.24
2022-08-26T16:59:38.458Z,46.27
2022-08-26T17:02:10.772Z,46.07
2022-08-26T17:04:41.862Z,46.36
2022-08-26T17:07:18.230Z,46.28
2022-08-26T17:09:49.114Z,46.36
2022-08-26T17:12:20.882Z,46.20
2022-08-26T17:14:51.818Z,46.10
2022-08-26T17:17:22.898Z,46.36
2022-08-26T17:19:53.688Z,46.32
2022-08-26T17:22:24.853Z,46.37
2022-08-26T17:24:56.305Z,46.49
2022-08-26T17:27:27.482Z,46.41
2022-08-26T17:29:58.401Z,46.42
2022-08-26T17:32:29.252Z,46.43
2022-08-26T17:35:00.134Z,46.40
2022-08-26T17:37:31.118Z,46.38
2022-08-26T17:40:02.521Z,46.38
2022-08-26T17:42:33.459Z,46.24
2022-08-26T17:45:04.682Z,46.40
2022-08-26T17:47:36.080Z,46.47
2022-08-26T17:50:10.339Z,46.42
2022-08-26T17:52:42.070Z,46.46
2022-08-26T17:55:16.755Z,46.52
2022-08-26T17:57:47.954Z,46.54
2022-08-26T18:00:27.539Z,46.62
2022-08-26T18:02:58.607Z,46.50
2022-08-26T18:05:30.117Z,46.09
2022-08-26T18:08:01.101Z,46.27
2022-08-26T18:10:32.191Z,46.29
2022-08-26T18:13:03.210Z,46.37
2022-08-26T18:15:34.381Z,46.52
2022-08-26T18:18:06.086Z,46.41
2022-08-26T18:20:41.236Z,46.62
2022-08-26T18:23:12.423Z,46.75
2022-08-26T18:25:44.888Z,46.80
2022-08-26T18:28:15.765Z,46.91
2022-08-26T18:30:47.670Z,47.13
2022-08-26T18:33:21.597Z,47.21
2022-08-26T18:35:52.887Z,47.30
2022-08-26T18:38:23.732Z,47.45
2022-08-26T18:40:59.485Z,47.19
2022-08-26T18:43:30.428Z,47.43
2022-08-26T18:46:10.061Z,47.41
2022-08-26T18:48:42.320Z,47.79
2022-08-26T18:51:19.379Z,47.72
2022-08-26T18:53:50.600Z,47.56
2022-08-26T18:56:22.126Z,47.73
2022-08-26T18:58:53.692Z,47.46
2022-08-26T19:01:27.575Z,47.75
2022-08-26T19:04:00.025Z,47.96
2022-08-26T19:06:33.057Z,47.74
2022-08-26T19:09:04.666Z,47.75
2022-08-26T19:11:42.921Z,48.03
2022-08-26T19:14:16.962Z,47.81
2022-08-26T19:16:52.678Z,47.71
2022-08-26T19:19:25.089Z,47.38
2022-08-26T19:21:56.640Z,47.42
2022-08-26T19:24:28.310Z,47.45
2022-08-26T19:27:01.543Z,47.46
2022-08-26T19:29:34.872Z,47.49
2022-08-26T19:32:06.887Z,47.32
2022-08-26T19:34:37.715Z,47.60
2022-08-26T19:37:08.564Z,47.73
2022-08-26T19:39:39.521Z,47.45
2022-08-26T19:42:10.517Z,47.50
2022-08-26T19:44:58.774Z,47.46
2022-08-26T19:47:29.554Z,47.03
2022-08-26T19:50:00.742Z,47.42
2022-08-26T19:52:32.756Z,47.14
2022-08-26T19:55:04.779Z,47.21
2022-08-26T19:57:36.379Z,47.17
2022-08-26T20:00:11.875Z,46.90
2022-08-26T20:02:43.937Z,46.80
2022-08-26T20:05:16.711Z,46.70
2022-08-26T20:07:47.780Z,47.24
2022-08-26T20:10:21.838Z,47.08
2022-08-26T20:12:53.405Z,46.80
2022-08-26T20:15:28.406Z,46.92
2022-08-26T20:17:59.432Z,46.81
2022-08-26T20:20:47.862Z,46.75
2022-08-26T20:23:18.799Z,46.64
2022-08-26T20:25:49.871Z,46.47
2022-08-26T20:28:20.815Z,46.40
2022-08-26T20:30:51.755Z,46.51
2022-08-26T20:33:22.696Z,46.50
2022-08-26T20:35:53.749Z,46.48
2022-08-26T20:38:24.697Z,46.29
2022-08-26T20:40:56.265Z,46.37
2022-08-26T20:43:27.187Z,46.42
2022-08-26T20:45:58.195Z,46.49
2022-08-26T20:48:29.433Z,46.21
2022-08-26T20:51:01.959Z,46.37
2022-08-26T20:53:33.415Z,46.60
2022-08-26T20:56:06.509Z,46.16
2022-08-26T20:58:37.858Z,46.15
2022-08-26T21:01:10.076Z,46.32
2022-08-26T21:03:41.129Z,46.30
2022-08-26T21:06:12.736Z,46.35
2022-08-26T21:08:44.392Z,46.28
2022-08-26T21:11:17.427Z,46.30
2022-08-26T21:14:04.295Z,46.49
2022-08-26T21:16:36.854Z,46.48
2022-08-26T21:19:10.757Z,46.31
2022-08-26T21:21:42.301Z,46.08
2022-08-26T21:24:13.687Z,46.10
2022-08-26T21:26:45.039Z,46.31
2022-08-26T21:29:15.910Z,46.21
2022-08-26T21:31:47.200Z,46.17
2022-08-26T21:34:20.021Z,46.31
2022-08-26T21:36:51.063Z,46.17
2022-08-26T21:39:22.216Z,46.29
2022-08-26T21:41:53.389Z,46.21
2022-08-26T21:44:24.304Z,46.33
2022-08-26T21:46:56.168Z,46.27
2022-08-26T21:49:27.314Z,46.37
2022-08-26T21:51:58.151Z,46.33
2022-08-26T21:54:29.097Z,46.49
2022-08-26T21:57:00.551Z,46.22
2022-08-26T21:59:31.377Z,46.15
2022-08-26T22:02:02.362Z,46.14
2022-08-26T22:04:35.116Z,46.24
2022-08-26T22:07:06.266Z,46.31
2022-08-26T22:09:37.382Z,46.19
2022-08-26T22:12:11.820Z,45.93
2022-08-26T22:14:43.189Z,45.95
2022-08-26T22:17:14.336Z,46.30
2022-08-26T22:19:46.449Z,46.51
2022-08-26T22:22:17.895Z,46.10
2022-08-26T22:24:48.913Z,46.51
2022-08-26T22:27:20.111Z,46.39
2022-08-26T22:29:51.608Z,46.28
2022-08-26T22:32:23.597Z,45.98
2022-08-26T22:34:54.522Z,46.38
2022-08-26T22:37:25.460Z,46.21
2022-08-26T22:39:56.549Z,46.23
2022-08-26T22:42:27.655Z,46.05
2022-08-26T22:44:58.608Z,46.03
2022-08-26T22:47:29.846Z,46.33
2022-08-26T22:50:01.432Z,46.30
2022-08-26T22:52:32.286Z,46.19
2022-08-26T22:55:03.190Z,46.07
2022-08-26T22:57:34.292Z,46.11
2022-08-26T23:00:06.561Z,45.96
2022-08-26T23:02:37.586Z,45.98
2022-08-26T23:05:10.286Z,46.23
2022-08-26T23:07:41.177Z,46.39
2022-08-26T23:10:13.448Z,46.03
2022-08-26T23:12:44.188Z,45.86
2022-08-26T23:15:15.948Z,46.04
2022-08-26T23:17:57.863Z,46.09
2022-08-26T23:20:30.629Z,46.04
2022-08-26T23:23:02.696Z,45.83
2022-08-26T23:25:34.460Z,45.95
2022-08-26T23:28:05.605Z,46.17
2022-08-26T23:30:36.657Z,46.00
2022-08-26T23:33:07.591Z,46.08
2022-08-26T23:35:38.541Z,45.78
2022-08-26T23:38:14.121Z,45.86
2022-08-26T23:40:45.436Z,46.08
2022-08-26T23:43:16.686Z,45.96
2022-08-26T23:45:47.596Z,46.30
2022-08-26T23:48:19.470Z,46.00
2022-08-26T23:51:08.036Z,46.26
2022-08-26T23:53:39.288Z,46.12
2022-08-26T23:56:16.232Z,45.99
2022-08-26T23:58:47.717Z,46.26
